Portada
METAR-TAF:

METAR-TAF

Aeroports :

Herat, Afganistan

latitud: 34-13N, longitud: 062-13E, altitud: 964 m

Observació

L'informe es va fer fa 2 hores i 14 minuts, a les 16:55 UTC
Vent 3 kt amb direcció variable
Temperatura 31°C
Humitat 14%
Pressió 1006 hPa
Visibilitat 10 km o més
sense núvols per sota de 1500 mi sense presència de cumulonimbus.

METAR: OAHR 231655Z VRB03KT CAVOK 31/00 Q1006 RMK A2971 BLU

Hora: 23:39 (19:09 UTC)


TAF: manca

Observacions i pronòstics meteorològics de més de 4000 aeroports (METAR i TAF).

Les estacions disponibles són els punts grocs i vermells al mapa.

Posi el ratolí al punt desitjat per veure el nom de l'estació.

Feu clic per veure les observacions i els pronòstics meteorològics.

Per canviar el mapa: feu clic els botons verds amb una creu de color negre per apropar; al botó verd amb un guió per allunyar la imatge; o en les fletxes verdes per a mapes adjacents.


METAR-TAF: